KFOA

Flora Municipal Airport

Flora, Illinois, USA
METAR KFOA 190835Z AUTO 00000KT 5SM BR CLR 21/20 A2995 RMK AO2 T02060200
Observed Flight Rules
Sep-19 @ 08:35 UTC (29 minutes ago) Marginal Visual Flight Rules
Visibility Clouds Conditions
5 miles
  • Clear skies
  • Mist
Temperatures Readings
Current 21°C / 70°F
Dewpoint 20°C / 68°F
Humidity 94%
Altimeter 29.95" Hg
Pressure 1014 hPa
Elevation 144
METAR KFOA 190835Z AUTO 00000KT 5SM BR CLR 21/20 A2995 RMK AO2 T02060200
Observed Flight Rules
Sep-19 @ 08:35 UTC
(29 minutes ago)
MVFR
Clouds
  • Clear skies
Conditions
  • Mist
Temperature Dewpoint
21°C / 70°F 20°C / 68°F
Humidity Altimeter Pressure
94% 29.95" Hg 1014 hPa